sensor_id;sensor_type;location;lat;lon;timestamp;P1;durP1;ratioP1;P2;durP2;ratioP2
61003;SDS011;46889;37.310;13.582;2022-10-31T00:02:49;12.18;;;6.25;;
61003;SDS011;46889;37.310;13.582;2022-10-31T00:05:16;15.68;;;6.55;;
61003;SDS011;46889;37.310;13.582;2022-10-31T00:07:42;11.57;;;5.57;;
61003;SDS011;46889;37.310;13.582;2022-10-31T00:10:08;13.27;;;5.83;;
61003;SDS011;46889;37.310;13.582;2022-10-31T00:15:00;13.48;;;5.90;;
61003;SDS011;46889;37.310;13.582;2022-10-31T00:17:27;11.90;;;5.88;;
61003;SDS011;46889;37.310;13.582;2022-10-31T00:19:53;13.80;;;6.30;;
61003;SDS011;46889;37.310;13.582;2022-10-31T00:24:45;11.10;;;5.65;;
61003;SDS011;46889;37.310;13.582;2022-10-31T00:29:40;12.95;;;6.30;;
61003;SDS011;46889;37.310;13.582;2022-10-31T00:32:07;13.00;;;6.07;;
61003;SDS011;46889;37.310;13.582;2022-10-31T00:39:26;12.93;;;6.22;;
61003;SDS011;46889;37.310;13.582;2022-10-31T00:41:52;12.40;;;6.40;;
61003;SDS011;46889;37.310;13.582;2022-10-31T00:44:18;14.35;;;6.20;;
61003;SDS011;46889;37.310;13.582;2022-10-31T00:49:11;13.95;;;6.05;;
61003;SDS011;46889;37.310;13.582;2022-10-31T00:51:37;10.95;;;5.65;;
61003;SDS011;46889;37.310;13.582;2022-10-31T00:54:03;10.25;;;6.35;;
61003;SDS011;46889;37.310;13.582;2022-10-31T00:56:29;11.93;;;5.93;;
61003;SDS011;46889;37.310;13.582;2022-10-31T00:58:55;18.43;;;7.00;;
61003;SDS011;46889;37.310;13.582;2022-10-31T01:01:21;14.00;;;6.60;;
61003;SDS011;46889;37.310;13.582;2022-10-31T01:03:47;12.10;;;5.82;;
61003;SDS011;46889;37.310;13.582;2022-10-31T01:06:13;12.30;;;5.33;;
61003;SDS011;46889;37.310;13.582;2022-10-31T01:08:41;14.25;;;6.90;;
61003;SDS011;46889;37.310;13.582;2022-10-31T01:13:41;10.25;;;6.13;;
61003;SDS011;46889;37.310;13.582;2022-10-31T01:16:13;13.48;;;5.70;;
61003;SDS011;46889;37.310;13.582;2022-10-31T01:18:41;12.63;;;6.22;;
61003;SDS011;46889;37.310;13.582;2022-10-31T01:21:11;11.63;;;6.38;;
61003;SDS011;46889;37.310;13.582;2022-10-31T01:23:40;9.85;;;6.43;;
61003;SDS011;46889;37.310;13.582;2022-10-31T01:26:15;12.10;;;6.38;;
61003;SDS011;46889;37.310;13.582;2022-10-31T01:28:51;16.02;;;6.43;;
61003;SDS011;46889;37.310;13.582;2022-10-31T01:31:20;13.80;;;6.07;;
61003;SDS011;46889;37.310;13.582;2022-10-31T01:33:47;13.93;;;6.30;;
61003;SDS011;46889;37.310;13.582;2022-10-31T01:38:43;16.67;;;5.82;;
61003;SDS011;46889;37.310;13.582;2022-10-31T01:41:21;13.40;;;6.50;;
61003;SDS011;46889;37.310;13.582;2022-10-31T01:43:51;8.55;;;5.35;;
61003;SDS011;46889;37.310;13.582;2022-10-31T01:46:24;16.60;;;6.78;;
61003;SDS011;46889;37.310;13.582;2022-10-31T01:48:55;13.77;;;6.63;;
61003;SDS011;46889;37.310;13.582;2022-10-31T01:51:23;11.38;;;6.47;;
61003;SDS011;46889;37.310;13.582;2022-10-31T01:53:55;14.50;;;6.45;;
61003;SDS011;46889;37.310;13.582;2022-10-31T01:56:26;17.52;;;6.78;;
61003;SDS011;46889;37.310;13.582;2022-10-31T01:58:53;10.60;;;6.28;;
61003;SDS011;46889;37.310;13.582;2022-10-31T02:01:22;12.10;;;7.13;;
61003;SDS011;46889;37.310;13.582;2022-10-31T02:03:50;14.07;;;6.82;;
61003;SDS011;46889;37.310;13.582;2022-10-31T02:06:19;12.65;;;6.82;;
61003;SDS011;46889;37.310;13.582;2022-10-31T02:08:56;16.15;;;6.40;;
61003;SDS011;46889;37.310;13.582;2022-10-31T02:11:24;14.25;;;6.63;;
61003;SDS011;46889;37.310;13.582;2022-10-31T02:13:52;16.40;;;6.68;;
61003;SDS011;46889;37.310;13.582;2022-10-31T02:16:19;12.65;;;6.45;;
61003;SDS011;46889;37.310;13.582;2022-10-31T02:18:45;15.27;;;6.50;;
61003;SDS011;46889;37.310;13.582;2022-10-31T02:24:15;11.73;;;6.53;;
61003;SDS011;46889;37.310;13.582;2022-10-31T02:27:28;10.95;;;6.38;;
61003;SDS011;46889;37.310;13.582;2022-10-31T02:30:06;17.02;;;6.68;;
61003;SDS011;46889;37.310;13.582;2022-10-31T02:35:28;13.88;;;6.47;;
61003;SDS011;46889;37.310;13.582;2022-10-31T02:41:17;12.27;;;6.25;;
61003;SDS011;46889;37.310;13.582;2022-10-31T02:49:22;14.57;;;6.10;;
61003;SDS011;46889;37.310;13.582;2022-10-31T02:51:50;18.35;;;6.20;;
61003;SDS011;46889;37.310;13.582;2022-10-31T02:54:20;12.63;;;5.90;;
61003;SDS011;46889;37.310;13.582;2022-10-31T02:56:51;13.45;;;5.72;;
61003;SDS011;46889;37.310;13.582;2022-10-31T02:59:26;13.68;;;6.38;;
61003;SDS011;46889;37.310;13.582;2022-10-31T03:02:14;12.30;;;6.63;;
61003;SDS011;46889;37.310;13.582;2022-10-31T03:07:56;14.07;;;6.45;;
61003;SDS011;46889;37.310;13.582;2022-10-31T03:16:56;13.40;;;5.28;;
61003;SDS011;46889;37.310;13.582;2022-10-31T03:19:29;18.65;;;6.90;;
61003;SDS011;46889;37.310;13.582;2022-10-31T03:22:32;12.48;;;5.82;;
61003;SDS011;46889;37.310;13.582;2022-10-31T03:24:59;12.90;;;6.10;;
61003;SDS011;46889;37.310;13.582;2022-10-31T03:27:30;14.75;;;6.35;;
61003;SDS011;46889;37.310;13.582;2022-10-31T03:30:03;12.23;;;6.10;;
61003;SDS011;46889;37.310;13.582;2022-10-31T03:32:34;12.25;;;6.20;;
61003;SDS011;46889;37.310;13.582;2022-10-31T03:35:10;12.50;;;5.85;;
61003;SDS011;46889;37.310;13.582;2022-10-31T03:37:40;12.00;;;6.43;;
61003;SDS011;46889;37.310;13.582;2022-10-31T03:42:37;14.18;;;6.45;;
61003;SDS011;46889;37.310;13.582;2022-10-31T03:45:11;15.65;;;6.57;;
61003;SDS011;46889;37.310;13.582;2022-10-31T03:47:46;15.60;;;6.75;;
61003;SDS011;46889;37.310;13.582;2022-10-31T03:50:13;14.60;;;6.82;;
61003;SDS011;46889;37.310;13.582;2022-10-31T03:52:43;19.77;;;7.22;;
61003;SDS011;46889;37.310;13.582;2022-10-31T03:55:24;15.50;;;6.93;;
61003;SDS011;46889;37.310;13.582;2022-10-31T03:58:21;13.95;;;6.82;;
61003;SDS011;46889;37.310;13.582;2022-10-31T04:00:52;12.85;;;6.50;;
61003;SDS011;46889;37.310;13.582;2022-10-31T04:03:25;13.98;;;6.75;;
61003;SDS011;46889;37.310;13.582;2022-10-31T04:05:54;11.32;;;6.50;;
61003;SDS011;46889;37.310;13.582;2022-10-31T04:08:24;16.05;;;6.07;;
61003;SDS011;46889;37.310;13.582;2022-10-31T04:10:55;9.77;;;6.57;;
61003;SDS011;46889;37.310;13.582;2022-10-31T04:13:24;12.35;;;6.93;;
61003;SDS011;46889;37.310;13.582;2022-10-31T04:15:54;11.95;;;6.00;;
61003;SDS011;46889;37.310;13.582;2022-10-31T04:20:58;14.45;;;6.40;;
61003;SDS011;46889;37.310;13.582;2022-10-31T04:23:26;8.40;;;5.10;;
61003;SDS011;46889;37.310;13.582;2022-10-31T04:25:53;13.50;;;5.38;;
61003;SDS011;46889;37.310;13.582;2022-10-31T04:28:19;18.47;;;6.13;;
61003;SDS011;46889;37.310;13.582;2022-10-31T04:30:45;15.50;;;6.33;;
61003;SDS011;46889;37.310;13.582;2022-10-31T04:33:11;17.48;;;6.30;;
61003;SDS011;46889;37.310;13.582;2022-10-31T04:35:37;13.43;;;6.57;;
61003;SDS011;46889;37.310;13.582;2022-10-31T04:38:03;18.30;;;6.30;;
61003;SDS011;46889;37.310;13.582;2022-10-31T04:40:31;14.90;;;6.40;;
61003;SDS011;46889;37.310;13.582;2022-10-31T04:42:57;9.38;;;5.53;;
61003;SDS011;46889;37.310;13.582;2022-10-31T04:45:23;12.60;;;5.80;;
61003;SDS011;46889;37.310;13.582;2022-10-31T04:47:49;13.30;;;6.75;;
61003;SDS011;46889;37.310;13.582;2022-10-31T04:50:16;14.20;;;6.65;;
61003;SDS011;46889;37.310;13.582;2022-10-31T04:52:43;12.35;;;6.45;;
61003;SDS011;46889;37.310;13.582;2022-10-31T04:55:10;10.55;;;5.60;;
61003;SDS011;46889;37.310;13.582;2022-10-31T04:57:44;18.90;;;6.35;;
61003;SDS011;46889;37.310;13.582;2022-10-31T05:00:15;12.40;;;6.00;;
61003;SDS011;46889;37.310;13.582;2022-10-31T05:02:43;12.82;;;6.40;;
61003;SDS011;46889;37.310;13.582;2022-10-31T05:05:10;14.07;;;6.25;;
61003;SDS011;46889;37.310;13.582;2022-10-31T05:07:40;13.63;;;5.97;;
61003;SDS011;46889;37.310;13.582;2022-10-31T05:10:11;13.25;;;6.05;;
61003;SDS011;46889;37.310;13.582;2022-10-31T05:12:45;11.63;;;6.00;;
61003;SDS011;46889;37.310;13.582;2022-10-31T05:15:22;14.45;;;7.07;;
61003;SDS011;46889;37.310;13.582;2022-10-31T05:17:50;13.30;;;6.18;;
61003;SDS011;46889;37.310;13.582;2022-10-31T05:22:47;12.15;;;6.20;;
61003;SDS011;46889;37.310;13.582;2022-10-31T05:25:15;16.33;;;6.32;;
61003;SDS011;46889;37.310;13.582;2022-10-31T05:30:09;12.18;;;6.05;;
61003;SDS011;46889;37.310;13.582;2022-10-31T05:32:45;11.77;;;5.90;;
61003;SDS011;46889;37.310;13.582;2022-10-31T05:35:14;15.70;;;6.20;;
61003;SDS011;46889;37.310;13.582;2022-10-31T05:37:41;14.68;;;6.88;;
61003;SDS011;46889;37.310;13.582;2022-10-31T05:40:08;17.50;;;6.72;;
61003;SDS011;46889;37.310;13.582;2022-10-31T05:42:37;17.08;;;6.97;;
61003;SDS011;46889;37.310;13.582;2022-10-31T05:45:05;12.63;;;6.40;;
61003;SDS011;46889;37.310;13.582;2022-10-31T05:47:35;17.73;;;7.18;;
61003;SDS011;46889;37.310;13.582;2022-10-31T05:50:01;11.95;;;6.53;;
61003;SDS011;46889;37.310;13.582;2022-10-31T05:52:28;12.88;;;6.25;;
61003;SDS011;46889;37.310;13.582;2022-10-31T05:54:54;15.88;;;5.47;;
61003;SDS011;46889;37.310;13.582;2022-10-31T05:57:21;11.05;;;5.43;;
61003;SDS011;46889;37.310;13.582;2022-10-31T05:59:47;15.05;;;5.72;;
61003;SDS011;46889;37.310;13.582;2022-10-31T06:02:13;14.93;;;5.57;;
61003;SDS011;46889;37.310;13.582;2022-10-31T06:04:39;12.20;;;5.72;;
61003;SDS011;46889;37.310;13.582;2022-10-31T06:07:05;13.35;;;5.10;;
61003;SDS011;46889;37.310;13.582;2022-10-31T06:09:31;13.05;;;4.82;;
61003;SDS011;46889;37.310;13.582;2022-10-31T06:12:09;12.88;;;5.07;;
61003;SDS011;46889;37.310;13.582;2022-10-31T06:14:37;13.27;;;5.05;;
61003;SDS011;46889;37.310;13.582;2022-10-31T06:17:07;9.05;;;4.43;;
61003;SDS011;46889;37.310;13.582;2022-10-31T06:19:35;15.23;;;4.70;;
61003;SDS011;46889;37.310;13.582;2022-10-31T06:22:01;10.52;;;4.95;;
61003;SDS011;46889;37.310;13.582;2022-10-31T06:24:28;8.55;;;4.65;;
61003;SDS011;46889;37.310;13.582;2022-10-31T06:29:21;12.27;;;4.88;;
61003;SDS011;46889;37.310;13.582;2022-10-31T06:31:50;9.63;;;4.75;;
61003;SDS011;46889;37.310;13.582;2022-10-31T06:34:17;11.55;;;4.57;;
61003;SDS011;46889;37.310;13.582;2022-10-31T06:36:45;10.93;;;4.85;;
61003;SDS011;46889;37.310;13.582;2022-10-31T06:39:11;8.70;;;4.50;;
61003;SDS011;46889;37.310;13.582;2022-10-31T06:41:39;11.60;;;4.00;;
61003;SDS011;46889;37.310;13.582;2022-10-31T06:44:07;11.35;;;4.30;;
61003;SDS011;46889;37.310;13.582;2022-10-31T06:46:33;8.88;;;3.90;;
61003;SDS011;46889;37.310;13.582;2022-10-31T06:48:59;9.55;;;4.45;;
61003;SDS011;46889;37.310;13.582;2022-10-31T06:51:25;8.50;;;4.15;;
61003;SDS011;46889;37.310;13.582;2022-10-31T06:53:51;11.23;;;4.10;;
61003;SDS011;46889;37.310;13.582;2022-10-31T06:56:18;7.05;;;3.75;;
61003;SDS011;46889;37.310;13.582;2022-10-31T06:58:44;12.55;;;4.35;;
61003;SDS011;46889;37.310;13.582;2022-10-31T07:01:11;12.10;;;4.40;;
61003;SDS011;46889;37.310;13.582;2022-10-31T07:03:37;10.30;;;4.30;;
61003;SDS011;46889;37.310;13.582;2022-10-31T07:06:03;12.80;;;4.10;;
61003;SDS011;46889;37.310;13.582;2022-10-31T07:08:29;8.30;;;4.50;;
61003;SDS011;46889;37.310;13.582;2022-10-31T07:10:56;10.02;;;4.13;;
61003;SDS011;46889;37.310;13.582;2022-10-31T07:13:23;14.68;;;4.43;;
61003;SDS011;46889;37.310;13.582;2022-10-31T07:15:52;11.43;;;4.10;;
61003;SDS011;46889;37.310;13.582;2022-10-31T07:18:19;9.63;;;3.88;;
61003;SDS011;46889;37.310;13.582;2022-10-31T07:20:47;22.08;;;4.53;;
61003;SDS011;46889;37.310;13.582;2022-10-31T07:25:39;6.80;;;4.35;;
61003;SDS011;46889;37.310;13.582;2022-10-31T07:28:07;9.65;;;3.72;;
61003;SDS011;46889;37.310;13.582;2022-10-31T07:30:33;9.32;;;3.95;;
61003;SDS011;46889;37.310;13.582;2022-10-31T07:33:01;8.98;;;4.15;;
61003;SDS011;46889;37.310;13.582;2022-10-31T07:35:27;16.38;;;5.13;;
61003;SDS011;46889;37.310;13.582;2022-10-31T07:37:54;7.32;;;4.13;;
61003;SDS011;46889;37.310;13.582;2022-10-31T07:42:48;11.98;;;4.78;;
61003;SDS011;46889;37.310;13.582;2022-10-31T07:45:16;9.48;;;4.10;;
61003;SDS011;46889;37.310;13.582;2022-10-31T07:47:48;10.40;;;4.70;;
61003;SDS011;46889;37.310;13.582;2022-10-31T07:50:19;16.30;;;4.57;;
61003;SDS011;46889;37.310;13.582;2022-10-31T07:52:47;8.65;;;4.05;;
61003;SDS011;46889;37.310;13.582;2022-10-31T07:55:24;10.77;;;4.35;;
61003;SDS011;46889;37.310;13.582;2022-10-31T07:57:57;10.40;;;4.28;;
61003;SDS011;46889;37.310;13.582;2022-10-31T08:00:29;8.82;;;4.25;;
61003;SDS011;46889;37.310;13.582;2022-10-31T08:03:04;10.45;;;4.15;;
61003;SDS011;46889;37.310;13.582;2022-10-31T08:05:30;9.70;;;4.07;;
61003;SDS011;46889;37.310;13.582;2022-10-31T08:07:57;14.40;;;4.70;;
61003;SDS011;46889;37.310;13.582;2022-10-31T08:10:25;11.23;;;4.32;;
61003;SDS011;46889;37.310;13.582;2022-10-31T08:12:56;13.13;;;4.60;;
61003;SDS011;46889;37.310;13.582;2022-10-31T08:15:26;10.75;;;4.22;;
61003;SDS011;46889;37.310;13.582;2022-10-31T08:17:54;9.73;;;4.18;;
61003;SDS011;46889;37.310;13.582;2022-10-31T08:20:20;8.75;;;3.95;;
61003;SDS011;46889;37.310;13.582;2022-10-31T08:22:56;8.25;;;3.58;;
61003;SDS011;46889;37.310;13.582;2022-10-31T08:25:24;11.48;;;4.03;;
61003;SDS011;46889;37.310;13.582;2022-10-31T08:27:52;12.00;;;3.65;;
61003;SDS011;46889;37.310;13.582;2022-10-31T08:30:19;9.30;;;4.13;;
61003;SDS011;46889;37.310;13.582;2022-10-31T08:33:03;8.40;;;3.67;;
61003;SDS011;46889;37.310;13.582;2022-10-31T08:35:36;11.90;;;3.78;;
61003;SDS011;46889;37.310;13.582;2022-10-31T08:38:04;9.20;;;3.40;;
61003;SDS011;46889;37.310;13.582;2022-10-31T08:40:30;6.82;;;3.45;;
61003;SDS011;46889;37.310;13.582;2022-10-31T08:42:58;9.32;;;3.65;;
61003;SDS011;46889;37.310;13.582;2022-10-31T08:45:30;10.30;;;3.90;;
61003;SDS011;46889;37.310;13.582;2022-10-31T08:47:59;10.75;;;3.80;;
61003;SDS011;46889;37.310;13.582;2022-10-31T08:50:27;10.43;;;3.40;;
61003;SDS011;46889;37.310;13.582;2022-10-31T08:52:59;13.10;;;3.50;;
61003;SDS011;46889;37.310;13.582;2022-10-31T08:55:29;12.48;;;3.63;;
61003;SDS011;46889;37.310;13.582;2022-10-31T09:00:22;10.02;;;3.47;;
61003;SDS011;46889;37.310;13.582;2022-10-31T09:02:56;10.63;;;3.95;;
61003;SDS011;46889;37.310;13.582;2022-10-31T09:05:23;8.15;;;3.80;;
61003;SDS011;46889;37.310;13.582;2022-10-31T09:07:49;8.18;;;3.95;;
61003;SDS011;46889;37.310;13.582;2022-10-31T09:10:16;13.15;;;4.35;;
61003;SDS011;46889;37.310;13.582;2022-10-31T09:12:42;13.63;;;3.67;;
61003;SDS011;46889;37.310;13.582;2022-10-31T09:15:09;7.95;;;3.45;;
61003;SDS011;46889;37.310;13.582;2022-10-31T09:17:37;12.85;;;4.00;;
61003;SDS011;46889;37.310;13.582;2022-10-31T09:20:03;10.50;;;3.95;;
61003;SDS011;46889;37.310;13.582;2022-10-31T09:22:29;9.32;;;3.85;;
61003;SDS011;46889;37.310;13.582;2022-10-31T09:24:55;13.10;;;4.32;;
61003;SDS011;46889;37.310;13.582;2022-10-31T09:27:21;14.38;;;4.78;;
61003;SDS011;46889;37.310;13.582;2022-10-31T09:29:47;16.05;;;5.20;;
61003;SDS011;46889;37.310;13.582;2022-10-31T09:32:13;16.33;;;4.70;;
61003;SDS011;46889;37.310;13.582;2022-10-31T09:34:39;13.00;;;4.90;;
61003;SDS011;46889;37.310;13.582;2022-10-31T09:37:05;13.80;;;4.57;;
61003;SDS011;46889;37.310;13.582;2022-10-31T09:39:31;14.40;;;4.88;;
61003;SDS011;46889;37.310;13.582;2022-10-31T09:47:45;11.07;;;4.30;;
61003;SDS011;46889;37.310;13.582;2022-10-31T09:53:24;15.45;;;4.35;;
61003;SDS011;46889;37.310;13.582;2022-10-31T09:55:51;13.73;;;4.95;;
61003;SDS011;46889;37.310;13.582;2022-10-31T09:58:24;15.57;;;5.25;;
61003;SDS011;46889;37.310;13.582;2022-10-31T10:00:56;9.48;;;4.13;;
61003;SDS011;46889;37.310;13.582;2022-10-31T10:03:42;11.15;;;4.70;;
61003;SDS011;46889;37.310;13.582;2022-10-31T10:06:17;9.85;;;4.20;;
61003;SDS011;46889;37.310;13.582;2022-10-31T10:08:52;14.68;;;4.60;;
61003;SDS011;46889;37.310;13.582;2022-10-31T10:17:21;9.43;;;4.95;;
61003;SDS011;46889;37.310;13.582;2022-10-31T10:20:39;9.23;;;4.47;;
61003;SDS011;46889;37.310;13.582;2022-10-31T10:32:02;14.88;;;5.20;;
61003;SDS011;46889;37.310;13.582;2022-10-31T10:34:37;14.35;;;4.55;;
61003;SDS011;46889;37.310;13.582;2022-10-31T10:37:33;16.13;;;4.47;;
61003;SDS011;46889;37.310;13.582;2022-10-31T10:40:11;14.48;;;4.10;;
61003;SDS011;46889;37.310;13.582;2022-10-31T10:42:53;7.45;;;3.60;;
61003;SDS011;46889;37.310;13.582;2022-10-31T10:45:46;14.07;;;4.97;;
61003;SDS011;46889;37.310;13.582;2022-10-31T10:51:54;13.65;;;4.07;;
61003;SDS011;46889;37.310;13.582;2022-10-31T11:00:35;9.88;;;3.63;;
61003;SDS011;46889;37.310;13.582;2022-10-31T11:03:15;11.65;;;3.97;;
61003;SDS011;46889;37.310;13.582;2022-10-31T11:05:45;16.05;;;4.47;;
61003;SDS011;46889;37.310;13.582;2022-10-31T11:08:26;13.60;;;3.60;;
61003;SDS011;46889;37.310;13.582;2022-10-31T11:10:58;9.95;;;3.80;;
61003;SDS011;46889;37.310;13.582;2022-10-31T11:13:36;10.10;;;3.97;;
61003;SDS011;46889;37.310;13.582;2022-10-31T11:16:06;11.15;;;3.85;;
61003;SDS011;46889;37.310;13.582;2022-10-31T11:18:41;13.57;;;3.92;;
61003;SDS011;46889;37.310;13.582;2022-10-31T11:23:45;10.82;;;3.50;;
61003;SDS011;46889;37.310;13.582;2022-10-31T11:26:19;16.08;;;5.57;;
61003;SDS011;46889;37.310;13.582;2022-10-31T11:28:58;11.18;;;3.28;;
61003;SDS011;46889;37.310;13.582;2022-10-31T11:31:28;10.52;;;3.00;;
61003;SDS011;46889;37.310;13.582;2022-10-31T11:33:59;9.60;;;3.13;;
61003;SDS011;46889;37.310;13.582;2022-10-31T11:36:32;9.88;;;3.30;;
61003;SDS011;46889;37.310;13.582;2022-10-31T11:39:22;8.45;;;2.97;;
61003;SDS011;46889;37.310;13.582;2022-10-31T11:41:50;10.43;;;3.08;;
61003;SDS011;46889;37.310;13.582;2022-10-31T11:44:20;9.30;;;3.65;;
61003;SDS011;46889;37.310;13.582;2022-10-31T11:46:50;6.43;;;3.17;;
61003;SDS011;46889;37.310;13.582;2022-10-31T11:49:25;9.52;;;3.33;;
61003;SDS011;46889;37.310;13.582;2022-10-31T11:52:01;6.72;;;3.40;;
61003;SDS011;46889;37.310;13.582;2022-10-31T11:54:44;8.85;;;2.95;;
61003;SDS011;46889;37.310;13.582;2022-10-31T12:00:29;6.93;;;2.72;;
61003;SDS011;46889;37.310;13.582;2022-10-31T12:08:30;6.55;;;2.78;;
61003;SDS011;46889;37.310;13.582;2022-10-31T12:13:48;10.48;;;2.90;;
61003;SDS011;46889;37.310;13.582;2022-10-31T12:16:46;8.20;;;2.47;;
61003;SDS011;46889;37.310;13.582;2022-10-31T12:19:42;10.50;;;2.83;;
61003;SDS011;46889;37.310;13.582;2022-10-31T12:23:16;9.68;;;2.78;;
61003;SDS011;46889;37.310;13.582;2022-10-31T12:37:35;14.32;;;3.47;;
61003;SDS011;46889;37.310;13.582;2022-10-31T12:45:57;6.47;;;3.10;;
61003;SDS011;46889;37.310;13.582;2022-10-31T12:54:08;12.07;;;3.60;;
61003;SDS011;46889;37.310;13.582;2022-10-31T12:59:39;13.63;;;3.97;;
61003;SDS011;46889;37.310;13.582;2022-10-31T13:08:12;10.85;;;4.30;;
61003;SDS011;46889;37.310;13.582;2022-10-31T13:10:59;8.18;;;4.40;;
61003;SDS011;46889;37.310;13.582;2022-10-31T13:13:35;10.32;;;4.50;;
61003;SDS011;46889;37.310;13.582;2022-10-31T13:16:17;8.30;;;4.22;;
61003;SDS011;46889;37.310;13.582;2022-10-31T13:21:38;8.77;;;4.53;;
61003;SDS011;46889;37.310;13.582;2022-10-31T13:26:45;17.25;;;5.38;;
61003;SDS011;46889;37.310;13.582;2022-10-31T13:29:32;16.90;;;5.07;;
61003;SDS011;46889;37.310;13.582;2022-10-31T13:32:06;8.27;;;5.07;;
61003;SDS011;46889;37.310;13.582;2022-10-31T13:34:39;10.85;;;4.68;;
61003;SDS011;46889;37.310;13.582;2022-10-31T13:37:33;12.70;;;5.00;;
61003;SDS011;46889;37.310;13.582;2022-10-31T13:45:50;11.73;;;4.30;;
61003;SDS011;46889;37.310;13.582;2022-10-31T13:48:37;9.57;;;4.03;;
61003;SDS011;46889;37.310;13.582;2022-10-31T13:51:09;10.60;;;4.28;;
61003;SDS011;46889;37.310;13.582;2022-10-31T13:53:56;11.13;;;4.20;;
61003;SDS011;46889;37.310;13.582;2022-10-31T13:56:48;10.25;;;4.10;;
61003;SDS011;46889;37.310;13.582;2022-10-31T13:59:17;10.80;;;4.55;;
61003;SDS011;46889;37.310;13.582;2022-10-31T14:01:54;12.30;;;4.28;;
61003;SDS011;46889;37.310;13.582;2022-10-31T14:04:46;8.93;;;4.40;;
61003;SDS011;46889;37.310;13.582;2022-10-31T14:07:11;12.63;;;4.00;;
61003;SDS011;46889;37.310;13.582;2022-10-31T14:09:55;10.95;;;4.13;;
61003;SDS011;46889;37.310;13.582;2022-10-31T14:12:39;8.20;;;3.97;;
61003;SDS011;46889;37.310;13.582;2022-10-31T14:15:16;9.93;;;3.50;;
61003;SDS011;46889;37.310;13.582;2022-10-31T14:17:55;9.25;;;3.15;;
61003;SDS011;46889;37.310;13.582;2022-10-31T14:20:36;7.72;;;3.50;;
61003;SDS011;46889;37.310;13.582;2022-10-31T14:23:11;7.38;;;3.28;;
61003;SDS011;46889;37.310;13.582;2022-10-31T14:28:54;4.82;;;2.65;;
61003;SDS011;46889;37.310;13.582;2022-10-31T14:31:27;8.15;;;2.97;;
61003;SDS011;46889;37.310;13.582;2022-10-31T14:34:05;10.75;;;2.90;;
61003;SDS011;46889;37.310;13.582;2022-10-31T14:42:48;8.07;;;2.60;;
61003;SDS011;46889;37.310;13.582;2022-10-31T14:48:21;10.32;;;3.00;;
61003;SDS011;46889;37.310;13.582;2022-10-31T14:51:19;9.88;;;4.10;;
61003;SDS011;46889;37.310;13.582;2022-10-31T14:53:49;6.15;;;2.97;;
61003;SDS011;46889;37.310;13.582;2022-10-31T14:56:27;9.23;;;2.70;;
61003;SDS011;46889;37.310;13.582;2022-10-31T14:59:02;8.63;;;2.67;;
61003;SDS011;46889;37.310;13.582;2022-10-31T15:01:34;8.50;;;2.50;;
61003;SDS011;46889;37.310;13.582;2022-10-31T15:04:04;7.00;;;2.53;;
61003;SDS011;46889;37.310;13.582;2022-10-31T15:06:43;9.00;;;2.83;;
61003;SDS011;46889;37.310;13.582;2022-10-31T15:09:22;10.77;;;2.70;;
61003;SDS011;46889;37.310;13.582;2022-10-31T15:11:55;7.78;;;2.65;;
61003;SDS011;46889;37.310;13.582;2022-10-31T15:14:27;6.85;;;2.92;;
61003;SDS011;46889;37.310;13.582;2022-10-31T15:17:08;6.57;;;2.58;;
61003;SDS011;46889;37.310;13.582;2022-10-31T15:19:38;6.55;;;3.10;;
61003;SDS011;46889;37.310;13.582;2022-10-31T15:26:59;8.68;;;2.83;;
61003;SDS011;46889;37.310;13.582;2022-10-31T15:29:28;12.07;;;3.05;;
61003;SDS011;46889;37.310;13.582;2022-10-31T15:31:56;8.05;;;2.92;;
61003;SDS011;46889;37.310;13.582;2022-10-31T15:34:29;10.13;;;3.40;;
61003;SDS011;46889;37.310;13.582;2022-10-31T15:37:03;8.35;;;3.15;;
61003;SDS011;46889;37.310;13.582;2022-10-31T15:39:29;10.07;;;2.58;;
61003;SDS011;46889;37.310;13.582;2022-10-31T15:41:56;8.48;;;2.85;;
61003;SDS011;46889;37.310;13.582;2022-10-31T15:46:57;10.05;;;2.97;;
61003;SDS011;46889;37.310;13.582;2022-10-31T15:49:34;9.73;;;3.17;;
61003;SDS011;46889;37.310;13.582;2022-10-31T15:53:13;7.40;;;2.95;;
61003;SDS011;46889;37.310;13.582;2022-10-31T16:00:42;10.35;;;3.85;;
61003;SDS011;46889;37.310;13.582;2022-10-31T16:05:44;11.68;;;3.40;;
61003;SDS011;46889;37.310;13.582;2022-10-31T16:10:56;13.68;;;2.97;;
61003;SDS011;46889;37.310;13.582;2022-10-31T16:13:26;14.35;;;3.22;;
61003;SDS011;46889;37.310;13.582;2022-10-31T16:16:14;7.07;;;3.03;;
61003;SDS011;46889;37.310;13.582;2022-10-31T16:18:41;8.82;;;3.60;;
61003;SDS011;46889;37.310;13.582;2022-10-31T16:21:09;12.68;;;3.50;;
61003;SDS011;46889;37.310;13.582;2022-10-31T16:23:36;11.88;;;4.07;;
61003;SDS011;46889;37.310;13.582;2022-10-31T16:26:08;9.65;;;3.75;;
61003;SDS011;46889;37.310;13.582;2022-10-31T16:28:36;11.13;;;3.85;;
61003;SDS011;46889;37.310;13.582;2022-10-31T16:31:12;8.00;;;3.70;;
61003;SDS011;46889;37.310;13.582;2022-10-31T16:39:05;8.88;;;3.92;;
61003;SDS011;46889;37.310;13.582;2022-10-31T16:41:35;9.00;;;3.65;;
61003;SDS011;46889;37.310;13.582;2022-10-31T16:44:11;10.55;;;4.22;;
61003;SDS011;46889;37.310;13.582;2022-10-31T16:47:08;10.73;;;4.20;;
61003;SDS011;46889;37.310;13.582;2022-10-31T16:49:38;10.77;;;3.70;;
61003;SDS011;46889;37.310;13.582;2022-10-31T16:52:04;11.18;;;3.42;;
61003;SDS011;46889;37.310;13.582;2022-10-31T16:54:30;7.63;;;3.90;;
61003;SDS011;46889;37.310;13.582;2022-10-31T16:56:57;11.82;;;3.88;;
61003;SDS011;46889;37.310;13.582;2022-10-31T16:59:25;10.52;;;3.70;;
61003;SDS011;46889;37.310;13.582;2022-10-31T17:01:53;8.05;;;3.47;;
61003;SDS011;46889;37.310;13.582;2022-10-31T17:04:20;14.00;;;3.72;;
61003;SDS011;46889;37.310;13.582;2022-10-31T17:06:47;7.65;;;3.15;;
61003;SDS011;46889;37.310;13.582;2022-10-31T17:09:13;8.48;;;3.80;;
61003;SDS011;46889;37.310;13.582;2022-10-31T17:11:40;8.75;;;3.60;;
61003;SDS011;46889;37.310;13.582;2022-10-31T17:14:12;9.15;;;3.35;;
61003;SDS011;46889;37.310;13.582;2022-10-31T17:16:39;9.80;;;4.57;;
61003;SDS011;46889;37.310;13.582;2022-10-31T17:19:07;9.52;;;4.80;;
61003;SDS011;46889;37.310;13.582;2022-10-31T17:21:35;8.93;;;4.38;;
61003;SDS011;46889;37.310;13.582;2022-10-31T17:24:02;7.97;;;4.20;;
61003;SDS011;46889;37.310;13.582;2022-10-31T17:28:54;7.90;;;3.33;;
61003;SDS011;46889;37.310;13.582;2022-10-31T17:31:22;14.85;;;3.50;;
61003;SDS011;46889;37.310;13.582;2022-10-31T17:33:56;6.70;;;3.38;;
61003;SDS011;46889;37.310;13.582;2022-10-31T17:36:24;8.93;;;3.58;;
61003;SDS011;46889;37.310;13.582;2022-10-31T17:38:50;5.38;;;3.63;;
61003;SDS011;46889;37.310;13.582;2022-10-31T17:41:17;7.82;;;3.78;;
61003;SDS011;46889;37.310;13.582;2022-10-31T17:43:44;6.25;;;3.13;;
61003;SDS011;46889;37.310;13.582;2022-10-31T17:46:10;8.52;;;3.63;;
61003;SDS011;46889;37.310;13.582;2022-10-31T17:48:36;6.35;;;3.28;;
61003;SDS011;46889;37.310;13.582;2022-10-31T17:51:03;7.38;;;3.67;;
61003;SDS011;46889;37.310;13.582;2022-10-31T17:53:30;12.93;;;6.57;;
61003;SDS011;46889;37.310;13.582;2022-10-31T17:58:28;8.35;;;3.70;;
61003;SDS011;46889;37.310;13.582;2022-10-31T18:00:55;6.50;;;3.75;;
61003;SDS011;46889;37.310;13.582;2022-10-31T18:03:21;11.48;;;3.50;;
61003;SDS011;46889;37.310;13.582;2022-10-31T18:05:57;8.40;;;3.53;;
61003;SDS011;46889;37.310;13.582;2022-10-31T18:08:27;8.80;;;3.53;;